sensor_id;sensor_type;location;lat;lon;timestamp;P1;durP1;ratioP1;P2;durP2;ratioP2
41984;SDS011;28319;48.116;10.818;2023-04-15T00:00:57;4.00;;;2.40;;
41984;SDS011;28319;48.116;10.818;2023-04-15T00:06:00;2.77;;;2.30;;
41984;SDS011;28319;48.116;10.818;2023-04-15T00:11:03;2.10;;;1.73;;
41984;SDS011;28319;48.116;10.818;2023-04-15T00:16:05;2.47;;;2.07;;
41984;SDS011;28319;48.116;10.818;2023-04-15T00:21:10;2.73;;;2.30;;
41984;SDS011;28319;48.116;10.818;2023-04-15T00:26:11;2.40;;;2.20;;
41984;SDS011;28319;48.116;10.818;2023-04-15T00:31:14;1.83;;;1.73;;
41984;SDS011;28319;48.116;10.818;2023-04-15T00:36:17;1.80;;;1.70;;
41984;SDS011;28319;48.116;10.818;2023-04-15T00:41:20;2.03;;;1.77;;
41984;SDS011;28319;48.116;10.818;2023-04-15T00:46:22;2.00;;;1.70;;
41984;SDS011;28319;48.116;10.818;2023-04-15T00:51:26;2.50;;;1.93;;
41984;SDS011;28319;48.116;10.818;2023-04-15T00:56:28;1.93;;;1.70;;
41984;SDS011;28319;48.116;10.818;2023-04-15T01:01:30;1.73;;;1.63;;
41984;SDS011;28319;48.116;10.818;2023-04-15T01:06:35;2.03;;;1.67;;
41984;SDS011;28319;48.116;10.818;2023-04-15T01:11:37;3.53;;;1.83;;
41984;SDS011;28319;48.116;10.818;2023-04-15T01:16:39;5.60;;;1.87;;
41984;SDS011;28319;48.116;10.818;2023-04-15T01:21:43;2.53;;;1.83;;
41984;SDS011;28319;48.116;10.818;2023-04-15T01:26:47;1.80;;;1.47;;
41984;SDS011;28319;48.116;10.818;2023-04-15T01:31:50;1.60;;;1.43;;
41984;SDS011;28319;48.116;10.818;2023-04-15T01:36:52;1.57;;;1.47;;
41984;SDS011;28319;48.116;10.818;2023-04-15T01:41:56;2.07;;;1.77;;
41984;SDS011;28319;48.116;10.818;2023-04-15T01:46:58;2.77;;;1.80;;
41984;SDS011;28319;48.116;10.818;2023-04-15T01:52:00;2.03;;;1.70;;
41984;SDS011;28319;48.116;10.818;2023-04-15T01:57:03;2.80;;;1.53;;
41984;SDS011;28319;48.116;10.818;2023-04-15T02:02:05;2.73;;;1.57;;
41984;SDS011;28319;48.116;10.818;2023-04-15T02:07:10;1.90;;;1.60;;
41984;SDS011;28319;48.116;10.818;2023-04-15T02:12:14;2.30;;;1.60;;
41984;SDS011;28319;48.116;10.818;2023-04-15T02:17:16;1.53;;;1.40;;
41984;SDS011;28319;48.116;10.818;2023-04-15T02:22:18;3.27;;;1.60;;
41984;SDS011;28319;48.116;10.818;2023-04-15T02:27:21;4.13;;;1.50;;
41984;SDS011;28319;48.116;10.818;2023-04-15T02:32:23;4.97;;;1.73;;
41984;SDS011;28319;48.116;10.818;2023-04-15T02:37:26;3.30;;;1.30;;
41984;SDS011;28319;48.116;10.818;2023-04-15T02:42:30;2.10;;;1.63;;
41984;SDS011;28319;48.116;10.818;2023-04-15T02:47:33;2.20;;;1.57;;
41984;SDS011;28319;48.116;10.818;2023-04-15T02:52:35;2.23;;;1.50;;
41984;SDS011;28319;48.116;10.818;2023-04-15T02:57:38;2.67;;;1.50;;
41984;SDS011;28319;48.116;10.818;2023-04-15T03:02:40;2.20;;;1.43;;
41984;SDS011;28319;48.116;10.818;2023-04-15T03:07:43;2.27;;;1.63;;
41984;SDS011;28319;48.116;10.818;2023-04-15T03:12:46;2.27;;;1.70;;
41984;SDS011;28319;48.116;10.818;2023-04-15T03:17:48;3.80;;;1.60;;
41984;SDS011;28319;48.116;10.818;2023-04-15T03:22:50;2.63;;;1.60;;
41984;SDS011;28319;48.116;10.818;2023-04-15T03:27:54;4.80;;;1.60;;
41984;SDS011;28319;48.116;10.818;2023-04-15T03:32:56;1.47;;;1.37;;
41984;SDS011;28319;48.116;10.818;2023-04-15T03:37:57;3.77;;;1.70;;
41984;SDS011;28319;48.116;10.818;2023-04-15T03:43:01;2.53;;;1.23;;
41984;SDS011;28319;48.116;10.818;2023-04-15T03:48:03;1.93;;;1.40;;
41984;SDS011;28319;48.116;10.818;2023-04-15T03:53:06;2.07;;;1.50;;
41984;SDS011;28319;48.116;10.818;2023-04-15T03:58:12;1.40;;;1.30;;
41984;SDS011;28319;48.116;10.818;2023-04-15T04:03:14;2.80;;;1.37;;
41984;SDS011;28319;48.116;10.818;2023-04-15T04:08:16;1.63;;;1.53;;
41984;SDS011;28319;48.116;10.818;2023-04-15T04:13:20;1.93;;;1.30;;
41984;SDS011;28319;48.116;10.818;2023-04-15T04:18:22;2.40;;;1.57;;
41984;SDS011;28319;48.116;10.818;2023-04-15T04:23:24;1.50;;;1.40;;
41984;SDS011;28319;48.116;10.818;2023-04-15T04:28:27;3.23;;;1.70;;
41984;SDS011;28319;48.116;10.818;2023-04-15T04:33:29;2.20;;;1.50;;
41984;SDS011;28319;48.116;10.818;2023-04-15T04:38:33;1.57;;;1.47;;
41984;SDS011;28319;48.116;10.818;2023-04-15T04:43:37;1.43;;;1.33;;
41984;SDS011;28319;48.116;10.818;2023-04-15T04:48:39;1.43;;;1.33;;
41984;SDS011;28319;48.116;10.818;2023-04-15T04:53:40;3.13;;;1.50;;
41984;SDS011;28319;48.116;10.818;2023-04-15T04:58:44;2.37;;;1.23;;
41984;SDS011;28319;48.116;10.818;2023-04-15T05:03:46;3.13;;;1.83;;
41984;SDS011;28319;48.116;10.818;2023-04-15T05:08:48;1.00;;;1.00;;
41984;SDS011;28319;48.116;10.818;2023-04-15T05:13:52;3.70;;;1.10;;
41984;SDS011;28319;48.116;10.818;2023-04-15T05:18:54;1.93;;;1.30;;
41984;SDS011;28319;48.116;10.818;2023-04-15T05:23:56;1.70;;;1.30;;
41984;SDS011;28319;48.116;10.818;2023-04-15T05:28:59;2.17;;;1.03;;
41984;SDS011;28319;48.116;10.818;2023-04-15T05:34:01;2.70;;;1.27;;
41984;SDS011;28319;48.116;10.818;2023-04-15T05:39:04;1.00;;;1.00;;
41984;SDS011;28319;48.116;10.818;2023-04-15T05:44:07;9.17;;;1.30;;
41984;SDS011;28319;48.116;10.818;2023-04-15T05:49:09;1.30;;;1.20;;
41984;SDS011;28319;48.116;10.818;2023-04-15T05:54:11;3.33;;;1.40;;
41984;SDS011;28319;48.116;10.818;2023-04-15T05:59:15;3.17;;;1.50;;
41984;SDS011;28319;48.116;10.818;2023-04-15T06:04:17;1.80;;;1.50;;
41984;SDS011;28319;48.116;10.818;2023-04-15T06:09:19;1.40;;;1.30;;
41984;SDS011;28319;48.116;10.818;2023-04-15T06:14:23;2.30;;;1.20;;
41984;SDS011;28319;48.116;10.818;2023-04-15T06:19:26;1.37;;;1.10;;
41984;SDS011;28319;48.116;10.818;2023-04-15T06:24:28;4.37;;;1.43;;
41984;SDS011;28319;48.116;10.818;2023-04-15T06:29:33;1.20;;;1.10;;
41984;SDS011;28319;48.116;10.818;2023-04-15T06:34:35;1.60;;;1.20;;
41984;SDS011;28319;48.116;10.818;2023-04-15T06:39:37;1.10;;;1.10;;
41984;SDS011;28319;48.116;10.818;2023-04-15T06:44:41;2.33;;;1.47;;
41984;SDS011;28319;48.116;10.818;2023-04-15T06:49:43;2.30;;;1.33;;
41984;SDS011;28319;48.116;10.818;2023-04-15T06:54:44;2.27;;;1.30;;
41984;SDS011;28319;48.116;10.818;2023-04-15T06:59:48;1.50;;;1.40;;
41984;SDS011;28319;48.116;10.818;2023-04-15T07:04:51;3.43;;;1.30;;
41984;SDS011;28319;48.116;10.818;2023-04-15T07:09:54;1.23;;;1.20;;
41984;SDS011;28319;48.116;10.818;2023-04-15T07:14:58;1.10;;;0.93;;
41984;SDS011;28319;48.116;10.818;2023-04-15T07:20:00;1.77;;;1.40;;
41984;SDS011;28319;48.116;10.818;2023-04-15T07:25:03;1.33;;;1.23;;
41984;SDS011;28319;48.116;10.818;2023-04-15T07:30:08;3.77;;;2.70;;
41984;SDS011;28319;48.116;10.818;2023-04-15T07:35:11;1.73;;;1.63;;
41984;SDS011;28319;48.116;10.818;2023-04-15T07:40:13;1.30;;;1.20;;
41984;SDS011;28319;48.116;10.818;2023-04-15T07:45:17;2.00;;;1.43;;
41984;SDS011;28319;48.116;10.818;2023-04-15T07:50:20;1.97;;;1.20;;
41984;SDS011;28319;48.116;10.818;2023-04-15T07:55:22;1.37;;;1.20;;
41984;SDS011;28319;48.116;10.818;2023-04-15T08:00:25;1.27;;;1.17;;
41984;SDS011;28319;48.116;10.818;2023-04-15T08:05:27;6.60;;;3.00;;
41984;SDS011;28319;48.116;10.818;2023-04-15T08:10:29;4.77;;;2.57;;
41984;SDS011;28319;48.116;10.818;2023-04-15T08:15:34;1.83;;;1.73;;
41984;SDS011;28319;48.116;10.818;2023-04-15T08:20:37;1.20;;;1.13;;
41984;SDS011;28319;48.116;10.818;2023-04-15T08:25:39;2.40;;;1.50;;
41984;SDS011;28319;48.116;10.818;2023-04-15T08:30:42;3.37;;;1.80;;
41984;SDS011;28319;48.116;10.818;2023-04-15T08:35:45;2.10;;;1.50;;
41984;SDS011;28319;48.116;10.818;2023-04-15T08:40:47;7.23;;;4.63;;
41984;SDS011;28319;48.116;10.818;2023-04-15T08:45:50;1.90;;;1.50;;
41984;SDS011;28319;48.116;10.818;2023-04-15T08:50:53;2.30;;;1.43;;
41984;SDS011;28319;48.116;10.818;2023-04-15T08:55:56;1.60;;;1.47;;
41984;SDS011;28319;48.116;10.818;2023-04-15T09:01:02;2.23;;;1.60;;
41984;SDS011;28319;48.116;10.818;2023-04-15T09:06:04;2.03;;;1.63;;
41984;SDS011;28319;48.116;10.818;2023-04-15T09:11:06;3.07;;;1.57;;
41984;SDS011;28319;48.116;10.818;2023-04-15T09:16:10;1.77;;;1.40;;
41984;SDS011;28319;48.116;10.818;2023-04-15T09:21:13;1.80;;;1.70;;
41984;SDS011;28319;48.116;10.818;2023-04-15T09:26:18;2.57;;;1.70;;
41984;SDS011;28319;48.116;10.818;2023-04-15T09:31:21;2.30;;;1.70;;
41984;SDS011;28319;48.116;10.818;2023-04-15T09:36:35;3.90;;;1.90;;
41984;SDS011;28319;48.116;10.818;2023-04-15T09:41:41;2.03;;;1.80;;
41984;SDS011;28319;48.116;10.818;2023-04-15T09:46:45;3.60;;;1.70;;
41984;SDS011;28319;48.116;10.818;2023-04-15T09:51:47;2.30;;;2.10;;
41984;SDS011;28319;48.116;10.818;2023-04-15T09:56:49;2.30;;;1.83;;
41984;SDS011;28319;48.116;10.818;2023-04-15T10:01:53;2.23;;;2.10;;
41984;SDS011;28319;48.116;10.818;2023-04-15T10:06:55;3.93;;;2.27;;
41984;SDS011;28319;48.116;10.818;2023-04-15T10:11:58;2.37;;;1.97;;
41984;SDS011;28319;48.116;10.818;2023-04-15T10:17:01;3.37;;;1.90;;
41984;SDS011;28319;48.116;10.818;2023-04-15T10:22:05;2.57;;;1.90;;
41984;SDS011;28319;48.116;10.818;2023-04-15T10:27:07;2.27;;;2.00;;
41984;SDS011;28319;48.116;10.818;2023-04-15T10:32:12;4.60;;;2.37;;
41984;SDS011;28319;48.116;10.818;2023-04-15T10:37:19;3.53;;;2.20;;
41984;SDS011;28319;48.116;10.818;2023-04-15T10:42:22;3.87;;;2.43;;
41984;SDS011;28319;48.116;10.818;2023-04-15T10:47:25;4.03;;;2.73;;
41984;SDS011;28319;48.116;10.818;2023-04-15T10:52:28;2.93;;;2.47;;
41984;SDS011;28319;48.116;10.818;2023-04-15T10:57:33;5.17;;;2.40;;
41984;SDS011;28319;48.116;10.818;2023-04-15T11:02:53;4.13;;;2.70;;
41984;SDS011;28319;48.116;10.818;2023-04-15T11:07:56;3.07;;;2.43;;
41984;SDS011;28319;48.116;10.818;2023-04-15T11:12:59;3.70;;;2.50;;
41984;SDS011;28319;48.116;10.818;2023-04-15T11:18:09;4.20;;;2.43;;
41984;SDS011;28319;48.116;10.818;2023-04-15T11:23:13;5.90;;;3.20;;
41984;SDS011;28319;48.116;10.818;2023-04-15T11:28:16;3.07;;;2.50;;
41984;SDS011;28319;48.116;10.818;2023-04-15T11:33:19;4.60;;;2.80;;
41984;SDS011;28319;48.116;10.818;2023-04-15T11:38:21;4.30;;;3.57;;
41984;SDS011;28319;48.116;10.818;2023-04-15T11:43:24;3.63;;;2.80;;
41984;SDS011;28319;48.116;10.818;2023-04-15T11:48:29;2.30;;;2.10;;
41984;SDS011;28319;48.116;10.818;2023-04-15T11:53:35;2.97;;;2.47;;
41984;SDS011;28319;48.116;10.818;2023-04-15T11:58:39;3.57;;;2.10;;
41984;SDS011;28319;48.116;10.818;2023-04-15T12:03:44;3.40;;;2.30;;
41984;SDS011;28319;48.116;10.818;2023-04-15T12:08:57;2.60;;;2.40;;
41984;SDS011;28319;48.116;10.818;2023-04-15T12:14:09;2.47;;;2.27;;
41984;SDS011;28319;48.116;10.818;2023-04-15T12:19:15;2.40;;;2.20;;
41984;SDS011;28319;48.116;10.818;2023-04-15T12:24:19;2.60;;;2.40;;
41984;SDS011;28319;48.116;10.818;2023-04-15T12:29:24;6.43;;;3.67;;
41984;SDS011;28319;48.116;10.818;2023-04-15T12:34:29;3.73;;;2.80;;
41984;SDS011;28319;48.116;10.818;2023-04-15T12:39:34;2.63;;;2.40;;
41984;SDS011;28319;48.116;10.818;2023-04-15T12:44:37;2.50;;;2.30;;
41984;SDS011;28319;48.116;10.818;2023-04-15T12:49:41;3.70;;;2.57;;
41984;SDS011;28319;48.116;10.818;2023-04-15T12:54:43;3.00;;;2.30;;
41984;SDS011;28319;48.116;10.818;2023-04-15T12:59:45;3.40;;;3.00;;
41984;SDS011;28319;48.116;10.818;2023-04-15T13:04:49;3.17;;;2.60;;
41984;SDS011;28319;48.116;10.818;2023-04-15T13:09:51;3.90;;;2.77;;
41984;SDS011;28319;48.116;10.818;2023-04-15T13:14:53;4.83;;;2.87;;
41984;SDS011;28319;48.116;10.818;2023-04-15T13:19:56;2.90;;;2.60;;
41984;SDS011;28319;48.116;10.818;2023-04-15T13:24:58;3.43;;;2.60;;
41984;SDS011;28319;48.116;10.818;2023-04-15T13:30:00;4.27;;;2.83;;
41984;SDS011;28319;48.116;10.818;2023-04-15T13:35:04;3.33;;;3.00;;
41984;SDS011;28319;48.116;10.818;2023-04-15T13:40:07;5.07;;;2.97;;
41984;SDS011;28319;48.116;10.818;2023-04-15T13:45:10;2.63;;;2.40;;
41984;SDS011;28319;48.116;10.818;2023-04-15T13:50:13;4.63;;;3.63;;
41984;SDS011;28319;48.116;10.818;2023-04-15T13:55:15;3.00;;;2.40;;
41984;SDS011;28319;48.116;10.818;2023-04-15T14:00:17;3.40;;;2.10;;
41984;SDS011;28319;48.116;10.818;2023-04-15T14:05:21;2.27;;;2.10;;
41984;SDS011;28319;48.116;10.818;2023-04-15T14:10:23;2.90;;;2.60;;
41984;SDS011;28319;48.116;10.818;2023-04-15T14:15:25;3.73;;;2.90;;
41984;SDS011;28319;48.116;10.818;2023-04-15T14:20:28;2.47;;;2.27;;
41984;SDS011;28319;48.116;10.818;2023-04-15T14:25:30;3.70;;;2.37;;
41984;SDS011;28319;48.116;10.818;2023-04-15T14:30:32;4.60;;;2.80;;
41984;SDS011;28319;48.116;10.818;2023-04-15T14:35:36;3.13;;;2.30;;
41984;SDS011;28319;48.116;10.818;2023-04-15T14:40:39;2.67;;;2.30;;
41984;SDS011;28319;48.116;10.818;2023-04-15T14:45:41;3.53;;;2.40;;
41984;SDS011;28319;48.116;10.818;2023-04-15T14:50:45;3.80;;;2.80;;
41984;SDS011;28319;48.116;10.818;2023-04-15T14:55:47;2.43;;;2.23;;
41984;SDS011;28319;48.116;10.818;2023-04-15T15:00:49;2.43;;;2.23;;
41984;SDS011;28319;48.116;10.818;2023-04-15T15:05:53;4.90;;;2.90;;
41984;SDS011;28319;48.116;10.818;2023-04-15T15:10:56;2.30;;;2.10;;
41984;SDS011;28319;48.116;10.818;2023-04-15T15:15:58;4.33;;;2.93;;
41984;SDS011;28319;48.116;10.818;2023-04-15T15:21:02;5.07;;;2.50;;
41984;SDS011;28319;48.116;10.818;2023-04-15T15:26:04;4.10;;;2.17;;
41984;SDS011;28319;48.116;10.818;2023-04-15T15:31:06;2.00;;;1.90;;
41984;SDS011;28319;48.116;10.818;2023-04-15T15:36:10;2.30;;;2.10;;
41984;SDS011;28319;48.116;10.818;2023-04-15T15:41:12;3.13;;;2.03;;
41984;SDS011;28319;48.116;10.818;2023-04-15T15:46:14;3.00;;;2.30;;
41984;SDS011;28319;48.116;10.818;2023-04-15T15:51:20;2.67;;;2.43;;
41984;SDS011;28319;48.116;10.818;2023-04-15T15:56:22;3.23;;;2.50;;
41984;SDS011;28319;48.116;10.818;2023-04-15T16:01:26;2.80;;;2.30;;
41984;SDS011;28319;48.116;10.818;2023-04-15T16:06:29;5.73;;;4.37;;
41984;SDS011;28319;48.116;10.818;2023-04-15T16:11:31;2.73;;;2.47;;
41984;SDS011;28319;48.116;10.818;2023-04-15T16:16:33;3.03;;;2.80;;
41984;SDS011;28319;48.116;10.818;2023-04-15T16:21:37;3.73;;;2.60;;
41984;SDS011;28319;48.116;10.818;2023-04-15T16:26:39;2.60;;;2.30;;
41984;SDS011;28319;48.116;10.818;2023-04-15T16:31:41;2.80;;;2.60;;
41984;SDS011;28319;48.116;10.818;2023-04-15T16:36:44;2.00;;;1.80;;
41984;SDS011;28319;48.116;10.818;2023-04-15T16:41:46;1.43;;;1.43;;
41984;SDS011;28319;48.116;10.818;2023-04-15T16:46:48;1.93;;;1.83;;
41984;SDS011;28319;48.116;10.818;2023-04-15T16:51:52;1.70;;;1.43;;
41984;SDS011;28319;48.116;10.818;2023-04-15T16:56:54;1.50;;;1.40;;
41984;SDS011;28319;48.116;10.818;2023-04-15T17:01:57;1.47;;;1.40;;
41984;SDS011;28319;48.116;10.818;2023-04-15T17:07:01;2.97;;;2.60;;
41984;SDS011;28319;48.116;10.818;2023-04-15T17:12:03;1.90;;;1.70;;
41984;SDS011;28319;48.116;10.818;2023-04-15T17:17:06;2.30;;;1.57;;
41984;SDS011;28319;48.116;10.818;2023-04-15T17:22:10;3.30;;;1.90;;
41984;SDS011;28319;48.116;10.818;2023-04-15T17:27:12;1.63;;;1.53;;
41984;SDS011;28319;48.116;10.818;2023-04-15T17:32:14;3.23;;;2.93;;
41984;SDS011;28319;48.116;10.818;2023-04-15T17:37:18;3.53;;;2.20;;
41984;SDS011;28319;48.116;10.818;2023-04-15T17:42:19;1.30;;;1.30;;
41984;SDS011;28319;48.116;10.818;2023-04-15T17:47:22;1.60;;;1.50;;
41984;SDS011;28319;48.116;10.818;2023-04-15T17:52:25;1.30;;;1.10;;
41984;SDS011;28319;48.116;10.818;2023-04-15T17:57:27;1.50;;;1.40;;
41984;SDS011;28319;48.116;10.818;2023-04-15T18:02:29;1.70;;;1.60;;
41984;SDS011;28319;48.116;10.818;2023-04-15T18:07:32;2.77;;;2.00;;
41984;SDS011;28319;48.116;10.818;2023-04-15T18:12:35;2.37;;;2.17;;
41984;SDS011;28319;48.116;10.818;2023-04-15T18:17:37;3.67;;;2.80;;
41984;SDS011;28319;48.116;10.818;2023-04-15T18:22:41;3.23;;;2.60;;
41984;SDS011;28319;48.116;10.818;2023-04-15T18:27:43;2.50;;;2.30;;
41984;SDS011;28319;48.116;10.818;2023-04-15T18:32:45;2.30;;;2.10;;
41984;SDS011;28319;48.116;10.818;2023-04-15T18:37:48;2.50;;;2.30;;
41984;SDS011;28319;48.116;10.818;2023-04-15T18:42:50;2.67;;;2.47;;
41984;SDS011;28319;48.116;10.818;2023-04-15T18:47:52;2.10;;;2.00;;
41984;SDS011;28319;48.116;10.818;2023-04-15T18:52:56;2.73;;;2.00;;
41984;SDS011;28319;48.116;10.818;2023-04-15T18:57:58;2.97;;;2.37;;
41984;SDS011;28319;48.116;10.818;2023-04-15T19:03:00;2.67;;;2.30;;
41984;SDS011;28319;48.116;10.818;2023-04-15T19:08:03;9.30;;;5.13;;
41984;SDS011;28319;48.116;10.818;2023-04-15T19:13:06;2.47;;;2.10;;
41984;SDS011;28319;48.116;10.818;2023-04-15T19:18:08;3.30;;;3.10;;
41984;SDS011;28319;48.116;10.818;2023-04-15T19:23:11;2.13;;;1.97;;
41984;SDS011;28319;48.116;10.818;2023-04-15T19:28:13;2.37;;;2.17;;
41984;SDS011;28319;48.116;10.818;2023-04-15T19:33:15;2.50;;;2.30;;
41984;SDS011;28319;48.116;10.818;2023-04-15T19:38:19;2.70;;;2.50;;
41984;SDS011;28319;48.116;10.818;2023-04-15T19:43:21;2.53;;;2.30;;
41984;SDS011;28319;48.116;10.818;2023-04-15T19:48:23;2.73;;;2.53;;
41984;SDS011;28319;48.116;10.818;2023-04-15T19:53:27;2.70;;;2.50;;
41984;SDS011;28319;48.116;10.818;2023-04-15T19:58:29;2.40;;;2.23;;
41984;SDS011;28319;48.116;10.818;2023-04-15T20:03:31;2.40;;;2.20;;
41984;SDS011;28319;48.116;10.818;2023-04-15T20:08:35;2.63;;;2.43;;
41984;SDS011;28319;48.116;10.818;2023-04-15T20:13:37;4.43;;;2.83;;
41984;SDS011;28319;48.116;10.818;2023-04-15T20:18:39;1.90;;;1.80;;
41984;SDS011;28319;48.116;10.818;2023-04-15T20:23:42;2.17;;;2.00;;
41984;SDS011;28319;48.116;10.818;2023-04-15T20:28:44;1.93;;;1.80;;
41984;SDS011;28319;48.116;10.818;2023-04-15T20:33:46;2.00;;;1.90;;
41984;SDS011;28319;48.116;10.818;2023-04-15T20:38:50;2.17;;;1.80;;
41984;SDS011;28319;48.116;10.818;2023-04-15T20:43:53;1.83;;;1.73;;
41984;SDS011;28319;48.116;10.818;2023-04-15T20:48:55;2.13;;;2.03;;
41984;SDS011;28319;48.116;10.818;2023-04-15T20:53:59;2.00;;;1.90;;
41984;SDS011;28319;48.116;10.818;2023-04-15T20:59:01;2.00;;;1.90;;
41984;SDS011;28319;48.116;10.818;2023-04-15T21:04:03;2.47;;;2.27;;
41984;SDS011;28319;48.116;10.818;2023-04-15T21:09:07;2.37;;;2.20;;
41984;SDS011;28319;48.116;10.818;2023-04-15T21:14:09;2.27;;;2.07;;
41984;SDS011;28319;48.116;10.818;2023-04-15T21:19:11;2.40;;;2.20;;
41984;SDS011;28319;48.116;10.818;2023-04-15T21:24:14;3.37;;;2.40;;
41984;SDS011;28319;48.116;10.818;2023-04-15T21:29:16;2.23;;;2.10;;
41984;SDS011;28319;48.116;10.818;2023-04-15T21:34:18;2.30;;;2.10;;
41984;SDS011;28319;48.116;10.818;2023-04-15T21:39:22;2.63;;;2.43;;
41984;SDS011;28319;48.116;10.818;2023-04-15T21:44:25;2.67;;;2.47;;
41984;SDS011;28319;48.116;10.818;2023-04-15T21:49:27;2.23;;;2.03;;
41984;SDS011;28319;48.116;10.818;2023-04-15T21:54:31;2.00;;;1.90;;
41984;SDS011;28319;48.116;10.818;2023-04-15T21:59:32;2.43;;;2.23;;
41984;SDS011;28319;48.116;10.818;2023-04-15T22:04:34;2.00;;;1.90;;
41984;SDS011;28319;48.116;10.818;2023-04-15T22:09:38;2.50;;;2.30;;
41984;SDS011;28319;48.116;10.818;2023-04-15T22:14:40;2.53;;;2.33;;
41984;SDS011;28319;48.116;10.818;2023-04-15T22:19:42;3.07;;;2.77;;
41984;SDS011;28319;48.116;10.818;2023-04-15T22:24:46;3.93;;;3.10;;
41984;SDS011;28319;48.116;10.818;2023-04-15T22:29:48;2.73;;;2.53;;
41984;SDS011;28319;48.116;10.818;2023-04-15T22:34:50;3.40;;;3.10;;
41984;SDS011;28319;48.116;10.818;2023-04-15T22:39:53;2.90;;;2.57;;
41984;SDS011;28319;48.116;10.818;2023-04-15T22:44:55;3.23;;;2.93;;
41984;SDS011;28319;48.116;10.818;2023-04-15T22:49:57;3.23;;;2.50;;
41984;SDS011;28319;48.116;10.818;2023-04-15T22:55:01;2.73;;;2.47;;
41984;SDS011;28319;48.116;10.818;2023-04-15T23:00:03;2.70;;;2.50;;
41984;SDS011;28319;48.116;10.818;2023-04-15T23:05:06;1.77;;;1.67;;
41984;SDS011;28319;48.116;10.818;2023-04-15T23:10:10;1.90;;;1.70;;
41984;SDS011;28319;48.116;10.818;2023-04-15T23:15:12;1.20;;;1.10;;
41984;SDS011;28319;48.116;10.818;2023-04-15T23:20:14;1.10;;;1.00;;
41984;SDS011;28319;48.116;10.818;2023-04-15T23:25:18;1.20;;;1.10;;
41984;SDS011;28319;48.116;10.818;2023-04-15T23:30:21;1.30;;;1.23;;
41984;SDS011;28319;48.116;10.818;2023-04-15T23:35:23;0.60;;;0.60;;
41984;SDS011;28319;48.116;10.818;2023-04-15T23:40:27;0.70;;;0.70;;
41984;SDS011;28319;48.116;10.818;2023-04-15T23:45:29;0.97;;;0.97;;
41984;SDS011;28319;48.116;10.818;2023-04-15T23:50:32;1.27;;;1.17;;
41984;SDS011;28319;48.116;10.818;2023-04-15T23:55:35;1.60;;;1.50;;
